KSME/SME METAR and TAF weather

Enter ICAO airport designator
Station Type Date Time Source
KSME METAR 2022/01/27 23:55 UTC NOAA

KSME 272355Z AUTO 00000KT 10SM FEW060 OVC070 04/M12 A3020 RMK AO2


Station Type Date Time Source
KSME Decoded METAR 2022/01/27 23:55 UTC NOAA

Somerset, Somerset-Pulaski County - J.T. Wilson Field Airport, KY, United States (KSME) 37-03-15N 084-36-54W
Jan 27, 2022 - 06:55 PM EST / 2022.01.27 2355 UTC
Wind: Calm:0
Visibility: 10 mile(s):0
Sky conditions: overcast
Temperature: 39 F (4 C)
Dew Point: 10 F (-12 C)
Relative Humidity: 30%
Pressure (altimeter): 30.2 in. Hg (1022 hPa)
ob: KSME 272355Z AUTO 00000KT 10SM FEW060 OVC070 04/M12 A3020 RMK AO2
cycle: 0

Station Type Date Time Source
KSME TAF 2022/01/27 18:34 UTC NOAA

TAF KSME 271732Z 2718/2818 VRB03KT P6SM BKN090
FM281100 30003KT P6SM BKN015 OVC090
FM281400 31006KT 3SM -SN BR OVC010

Example: see airport list